TRA903 EHRD-EGLL
Flight info
| Callsign | TRA903 |
|---|---|
| Flight time | 0h 33m |
| Altitude | 24000 |
| Route | ABNED L980 LOGAN |
| Aircraft | B738/M-SDE2E3FGHIRWXY/LB1 |
Departure
| Time | 2026-05-05 12:26 |
|---|---|
| Airport | Rotterdam The Hague Airport (EHRD) |
Arrival
| Time | 2026-05-05 12:59 |
|---|---|
| Airport | London Heathrow Airport (EGLL) |
| Time | Latitude | Longitude | Altitude | Speed | Heading |
|---|---|---|---|---|---|
| 2026-05-05 12:14 | 51.95187 | 4.43406 | -6 ft | 0 kts | 327° |
| 2026-05-05 12:23 | 51.95190 | 4.43403 | -6 ft | 3 kts | 327° |
| 2026-05-05 12:24 | 51.95213 | 4.43346 | -6 ft | 8 kts | 264° |
| 2026-05-05 12:24 | 51.95189 | 4.43273 | -6 ft | 7 kts | 237° |
| 2026-05-05 12:24 | 51.95162 | 4.43204 | -6 ft | 7 kts | 238° |
| 2026-05-05 12:24 | 51.95135 | 4.43125 | -6 ft | 13 kts | 243° |
| 2026-05-05 12:25 | 51.95127 | 4.42938 | -6 ft | 20 kts | 311° |
| 2026-05-05 12:25 | 51.95234 | 4.42891 | -6 ft | 8 kts | 50° |
| 2026-05-05 12:25 | 51.95244 | 4.42917 | -6 ft | 17 kts | 58° |
| 2026-05-05 12:25 | 51.95492 | 4.43533 | -6 ft | 111 kts | 57° |
| 2026-05-05 12:26 | 51.96038 | 4.44911 | 292 ft | 161 kts | 57° |
| 2026-05-05 12:26 | 51.96606 | 4.46390 | 1712 ft | 151 kts | 57° |
| 2026-05-05 12:26 | 51.97137 | 4.47867 | 2706 ft | 157 kts | 58° |
| 2026-05-05 12:26 | 51.97742 | 4.49567 | 3034 ft | 190 kts | 59° |
| 2026-05-05 12:27 | 51.98683 | 4.51309 | 3051 ft | 216 kts | 33° |
| 2026-05-05 12:27 | 52.00121 | 4.52091 | 3648 ft | 223 kts | 5° |
| 2026-05-05 12:27 | 52.01645 | 4.51678 | 4555 ft | 227 kts | 339° |
| 2026-05-05 12:27 | 52.02915 | 4.50112 | 5353 ft | 236 kts | 308° |
| 2026-05-05 12:28 | 52.03563 | 4.47664 | 6217 ft | 240 kts | 276° |
| 2026-05-05 12:28 | 52.03368 | 4.45010 | 7060 ft | 240 kts | 246° |
| 2026-05-05 12:28 | 52.02363 | 4.42864 | 7802 ft | 243 kts | 218° |
| 2026-05-05 12:28 | 52.00653 | 4.40926 | 8753 ft | 249 kts | 214° |
| 2026-05-05 12:29 | 51.97878 | 4.37839 | 10242 ft | 256 kts | 215° |
| 2026-05-05 12:29 | 51.96574 | 4.35876 | 10935 ft | 260 kts | 240° |
| 2026-05-05 12:29 | 51.96016 | 4.33029 | 11341 ft | 277 kts | 262° |
| 2026-05-05 12:29 | 51.95755 | 4.29782 | 11545 ft | 304 kts | 263° |
| 2026-05-05 12:30 | 51.95494 | 4.26235 | 11740 ft | 329 kts | 263° |
| 2026-05-05 12:30 | 51.95204 | 4.22427 | 11935 ft | 353 kts | 263° |
| 2026-05-05 12:30 | 51.94657 | 4.15741 | 12792 ft | 371 kts | 262° |
| 2026-05-05 12:30 | 51.94093 | 4.09145 | 13921 ft | 378 kts | 262° |
| 2026-05-05 12:31 | 51.93350 | 4.01208 | 15233 ft | 383 kts | 261° |
| 2026-05-05 12:31 | 51.92504 | 3.92628 | 16625 ft | 389 kts | 260° |
| 2026-05-05 12:31 | 51.91643 | 3.83909 | 17999 ft | 395 kts | 259° |
| 2026-05-05 12:31 | 51.90768 | 3.75054 | 19137 ft | 401 kts | 259° |
| 2026-05-05 12:32 | 51.89876 | 3.66077 | 20305 ft | 406 kts | 259° |
| 2026-05-05 12:32 | 51.88965 | 3.56972 | 21334 ft | 413 kts | 259° |
| 2026-05-05 12:32 | 51.88033 | 3.47739 | 22417 ft | 418 kts | 259° |
| 2026-05-05 12:32 | 51.87524 | 3.42729 | 22940 ft | 422 kts | 259° |
| 2026-05-05 12:33 | 51.87045 | 3.38028 | 23436 ft | 425 kts | 258° |
| 2026-05-05 12:33 | 51.86562 | 3.33305 | 23881 ft | 426 kts | 258° |
| 2026-05-05 12:33 | 51.85874 | 3.26602 | 23915 ft | 420 kts | 259° |
| 2026-05-05 12:33 | 51.85015 | 3.18306 | 23954 ft | 420 kts | 258° |
| 2026-05-05 12:34 | 51.84365 | 3.10360 | 23968 ft | 431 kts | 262° |
| 2026-05-05 12:34 | 51.83796 | 3.00634 | 23967 ft | 437 kts | 263° |
| 2026-05-05 12:34 | 51.83201 | 2.90855 | 23965 ft | 437 kts | 262° |
| 2026-05-05 12:34 | 51.82563 | 2.81090 | 23954 ft | 436 kts | 262° |
| 2026-05-05 12:35 | 51.81914 | 2.71360 | 23958 ft | 435 kts | 262° |
| 2026-05-05 12:35 | 51.81424 | 2.64117 | 23957 ft | 435 kts | 262° |
| 2026-05-05 12:35 | 51.80757 | 2.54414 | 23965 ft | 434 kts | 261° |
| 2026-05-05 12:35 | 51.80081 | 2.44722 | 23965 ft | 434 kts | 262° |
| 2026-05-05 12:36 | 51.79400 | 2.35042 | 23974 ft | 433 kts | 262° |
| 2026-05-05 12:36 | 51.78713 | 2.25370 | 23965 ft | 434 kts | 261° |
| 2026-05-05 12:36 | 51.78220 | 2.18154 | 23960 ft | 436 kts | 262° |
| 2026-05-05 12:36 | 51.77652 | 2.08374 | 23980 ft | 438 kts | 263° |
| 2026-05-05 12:37 | 51.77089 | 1.98561 | 23976 ft | 441 kts | 262° |
| 2026-05-05 12:37 | 51.76500 | 1.88687 | 23981 ft | 442 kts | 263° |
| 2026-05-05 12:37 | 51.75896 | 1.78804 | 23973 ft | 444 kts | 262° |
| 2026-05-05 12:37 | 51.75511 | 1.72582 | 23974 ft | 444 kts | 262° |
| 2026-05-05 12:38 | 51.75204 | 1.67628 | 23976 ft | 443 kts | 262° |
| 2026-05-05 12:38 | 51.74895 | 1.62692 | 23946 ft | 439 kts | 262° |
| 2026-05-05 12:38 | 51.74588 | 1.57837 | 23645 ft | 431 kts | 262° |
| 2026-05-05 12:38 | 51.74281 | 1.53060 | 23043 ft | 427 kts | 262° |
| 2026-05-05 12:39 | 51.73972 | 1.48312 | 22359 ft | 424 kts | 262° |
| 2026-05-05 12:39 | 51.73664 | 1.43614 | 21694 ft | 421 kts | 262° |
| 2026-05-05 12:39 | 51.73356 | 1.38936 | 21097 ft | 417 kts | 263° |
| 2026-05-05 12:39 | 51.73050 | 1.34303 | 20523 ft | 414 kts | 263° |
| 2026-05-05 12:40 | 51.72746 | 1.29720 | 19946 ft | 410 kts | 263° |
| 2026-05-05 12:40 | 51.72442 | 1.25168 | 19383 ft | 407 kts | 263° |
| 2026-05-05 12:40 | 51.72139 | 1.20649 | 18831 ft | 404 kts | 263° |
| 2026-05-05 12:40 | 51.71839 | 1.16208 | 18299 ft | 401 kts | 263° |
| 2026-05-05 12:41 | 51.71537 | 1.11755 | 17679 ft | 398 kts | 263° |
| 2026-05-05 12:41 | 51.71235 | 1.07331 | 17070 ft | 395 kts | 263° |
| 2026-05-05 12:41 | 51.70935 | 1.02948 | 16471 ft | 393 kts | 263° |
| 2026-05-05 12:41 | 51.70635 | 0.98588 | 15886 ft | 390 kts | 263° |
| 2026-05-05 12:42 | 51.70334 | 0.94257 | 15308 ft | 388 kts | 264° |
| 2026-05-05 12:42 | 51.70035 | 0.89955 | 14739 ft | 385 kts | 264° |
| 2026-05-05 12:42 | 51.69737 | 0.85679 | 14191 ft | 383 kts | 264° |
| 2026-05-05 12:42 | 51.69439 | 0.81422 | 13645 ft | 380 kts | 264° |
| 2026-05-05 12:43 | 51.69145 | 0.77219 | 13118 ft | 376 kts | 264° |
| 2026-05-05 12:43 | 51.68851 | 0.73055 | 12594 ft | 372 kts | 264° |
| 2026-05-05 12:43 | 51.68562 | 0.68990 | 12084 ft | 368 kts | 264° |
| 2026-05-05 12:43 | 51.68267 | 0.64860 | 11573 ft | 365 kts | 264° |
| 2026-05-05 12:44 | 51.67977 | 0.60820 | 11074 ft | 361 kts | 264° |
| 2026-05-05 12:44 | 51.67688 | 0.56811 | 10582 ft | 358 kts | 264° |
| 2026-05-05 12:44 | 51.67405 | 0.52897 | 10095 ft | 355 kts | 264° |
| 2026-05-05 12:44 | 51.67114 | 0.48910 | 9593 ft | 352 kts | 264° |
| 2026-05-05 12:45 | 51.66833 | 0.45072 | 9116 ft | 348 kts | 264° |
| 2026-05-05 12:45 | 51.66553 | 0.41272 | 8988 ft | 334 kts | 264° |
| 2026-05-05 12:45 | 51.66284 | 0.37638 | 8957 ft | 319 kts | 264° |
| 2026-05-05 12:45 | 51.66026 | 0.34172 | 8944 ft | 304 kts | 264° |
| 2026-05-05 12:46 | 51.65777 | 0.30825 | 8943 ft | 290 kts | 263° |
| 2026-05-05 12:46 | 51.65544 | 0.27688 | 8950 ft | 283 kts | 264° |
| 2026-05-05 12:46 | 51.65307 | 0.24504 | 8964 ft | 284 kts | 264° |
| 2026-05-05 12:46 | 51.65069 | 0.21335 | 8975 ft | 286 kts | 264° |
| 2026-05-05 12:47 | 51.64827 | 0.18139 | 8975 ft | 289 kts | 264° |
| 2026-05-05 12:47 | 51.64586 | 0.14961 | 8975 ft | 290 kts | 263° |
| 2026-05-05 12:47 | 51.64376 | 0.11690 | 8967 ft | 290 kts | 265° |
| 2026-05-05 12:47 | 51.64205 | 0.08495 | 8963 ft | 290 kts | 266° |
| 2026-05-05 12:48 | 51.64037 | 0.05269 | 8962 ft | 289 kts | 266° |
| 2026-05-05 12:48 | 51.63873 | 0.02067 | 8962 ft | 288 kts | 266° |
| 2026-05-05 12:48 | 51.63708 | -0.01142 | 8985 ft | 287 kts | 266° |
| 2026-05-05 12:48 | 51.63541 | -0.04328 | 8979 ft | 286 kts | 266° |
| 2026-05-05 12:49 | 51.63370 | -0.07514 | 8984 ft | 285 kts | 266° |
| 2026-05-05 12:49 | 51.63201 | -0.10689 | 8990 ft | 285 kts | 266° |
| 2026-05-05 12:49 | 51.63030 | -0.13890 | 8992 ft | 284 kts | 265° |
| 2026-05-05 12:49 | 51.62864 | -0.17061 | 8995 ft | 284 kts | 266° |
| 2026-05-05 12:50 | 51.62696 | -0.20234 | 8994 ft | 285 kts | 266° |
| 2026-05-05 12:50 | 51.62528 | -0.23407 | 8996 ft | 285 kts | 266° |
| 2026-05-05 12:50 | 51.62358 | -0.26586 | 8996 ft | 285 kts | 266° |
| 2026-05-05 12:50 | 51.62186 | -0.29768 | 8995 ft | 286 kts | 266° |
| 2026-05-05 12:51 | 51.62014 | -0.32955 | 8966 ft | 286 kts | 266° |
| 2026-05-05 12:51 | 51.61842 | -0.36145 | 8965 ft | 286 kts | 266° |
| 2026-05-05 12:51 | 51.61673 | -0.39331 | 8969 ft | 286 kts | 265° |
| 2026-05-05 12:51 | 51.61505 | -0.42525 | 8967 ft | 285 kts | 266° |
| 2026-05-05 12:52 | 51.61338 | -0.45649 | 8850 ft | 283 kts | 265° |
| 2026-05-05 12:52 | 51.61169 | -0.48787 | 8551 ft | 282 kts | 266° |
| 2026-05-05 12:52 | 51.60992 | -0.51978 | 8159 ft | 283 kts | 265° |
| 2026-05-05 12:52 | 51.60818 | -0.55136 | 7851 ft | 282 kts | 265° |
| 2026-05-05 12:53 | 51.60650 | -0.58225 | 7564 ft | 281 kts | 266° |
| 2026-05-05 12:53 | 51.60479 | -0.61356 | 7293 ft | 280 kts | 265° |
| 2026-05-05 12:53 | 51.60312 | -0.64468 | 7044 ft | 279 kts | 265° |
| 2026-05-05 12:53 | 51.60082 | -0.67552 | 6741 ft | 279 kts | 255° |
| 2026-05-05 12:54 | 51.57816 | -0.72425 | 5933 ft | 277 kts | 221° |
| 2026-05-05 12:54 | 51.56262 | -0.74244 | 5489 ft | 276 kts | 203° |
| 2026-05-05 12:54 | 51.54401 | -0.74940 | 5014 ft | 275 kts | 183° |
| 2026-05-05 12:55 | 51.52507 | -0.75117 | 4702 ft | 271 kts | 181° |
| 2026-05-05 12:55 | 51.50613 | -0.75190 | 4211 ft | 272 kts | 173° |
| 2026-05-05 12:55 | 51.48904 | -0.74157 | 3935 ft | 257 kts | 136° |
| 2026-05-05 12:55 | 51.47976 | -0.71914 | 3750 ft | 237 kts | 103° |
| 2026-05-05 12:56 | 51.47737 | -0.69316 | 3159 ft | 235 kts | 91° |
| 2026-05-05 12:56 | 51.47699 | -0.66753 | 2720 ft | 220 kts | 87° |
| 2026-05-05 12:56 | 51.47708 | -0.64445 | 2576 ft | 195 kts | 86° |
| 2026-05-05 12:56 | 51.47716 | -0.62314 | 2185 ft | 186 kts | 86° |
| 2026-05-05 12:57 | 51.47721 | -0.60297 | 1752 ft | 176 kts | 87° |
| 2026-05-05 12:57 | 51.47724 | -0.58363 | 1343 ft | 167 kts | 86° |
| 2026-05-05 12:57 | 51.47728 | -0.56604 | 1119 ft | 151 kts | 86° |
| 2026-05-05 12:57 | 51.47732 | -0.54967 | 922 ft | 143 kts | 85° |
| 2026-05-05 12:58 | 51.47737 | -0.53372 | 710 ft | 144 kts | 86° |
| 2026-05-05 12:58 | 51.47739 | -0.51762 | 538 ft | 144 kts | 88° |
| 2026-05-05 12:58 | 51.47740 | -0.50162 | 336 ft | 142 kts | 87° |
| 2026-05-05 12:58 | 51.47749 | -0.48585 | 151 ft | 142 kts | 88° |
| 2026-05-05 12:59 | 51.47756 | -0.47082 | 91 ft | 124 kts | 89° |
| 2026-05-05 12:59 | 51.47759 | -0.45903 | 87 ft | 84 kts | 89° |
| 2026-05-05 12:59 | 51.47762 | -0.45295 | 85 ft | 26 kts | 94° |
| 2026-05-05 13:00 | 51.47605 | -0.45209 | 87 ft | 10 kts | 237° |
| 2026-05-05 13:00 | 51.47597 | -0.45330 | 85 ft | 16 kts | 269° |
| 2026-05-05 13:01 | 51.47594 | -0.46124 | 89 ft | 23 kts | 269° |
| 2026-05-05 13:01 | 51.47593 | -0.46374 | 85 ft | 22 kts | 269° |
| 2026-05-05 13:01 | 51.47592 | -0.46618 | 85 ft | 22 kts | 270° |
| 2026-05-05 13:01 | 51.47586 | -0.46854 | 85 ft | 21 kts | 262° |
| 2026-05-05 13:02 | 51.47581 | -0.47107 | 89 ft | 26 kts | 269° |
| 2026-05-05 13:02 | 51.47581 | -0.47446 | 89 ft | 34 kts | 270° |
| 2026-05-05 13:02 | 51.47581 | -0.47856 | 89 ft | 38 kts | 270° |
| 2026-05-05 13:02 | 51.47575 | -0.48238 | 85 ft | 29 kts | 269° |
| 2026-05-05 13:03 | 51.47566 | -0.48447 | 90 ft | 13 kts | 236° |
| 2026-05-05 13:03 | 51.47481 | -0.48473 | 85 ft | 13 kts | 178° |
| 2026-05-05 13:03 | 51.47394 | -0.48473 | 85 ft | 12 kts | 179° |
| 2026-05-05 13:03 | 51.47363 | -0.48515 | 86 ft | 6 kts | 259° |
| 2026-05-05 13:04 | 51.47361 | -0.48569 | 85 ft | 1 kts | 269° |
| 2026-05-05 13:04 | 51.47361 | -0.48580 | 85 ft | 0 kts | 269° |